sensor_id;sensor_type;location;lat;lon;timestamp;pressure;altitude;pressure_sealevel;temperature;humidity
22580;BME280;11456;47.030;15.396;2023-04-24T00:02:15;96521.63;;;10.67;100.00
22580;BME280;11456;47.030;15.396;2023-04-24T00:04:42;96524.34;;;10.59;100.00
22580;BME280;11456;47.030;15.396;2023-04-24T00:07:11;96518.63;;;10.62;99.57
22580;BME280;11456;47.030;15.396;2023-04-24T00:09:39;96515.34;;;10.74;99.73
22580;BME280;11456;47.030;15.396;2023-04-24T00:12:06;96510.13;;;10.73;99.52
22580;BME280;11456;47.030;15.396;2023-04-24T00:14:32;96502.38;;;10.55;99.65
22580;BME280;11456;47.030;15.396;2023-04-24T00:16:59;96500.13;;;10.59;100.00
22580;BME280;11456;47.030;15.396;2023-04-24T00:19:25;96502.16;;;10.57;99.13
22580;BME280;11456;47.030;15.396;2023-04-24T00:21:52;96502.47;;;10.62;99.60
22580;BME280;11456;47.030;15.396;2023-04-24T00:24:18;96490.97;;;10.68;99.52
22580;BME280;11456;47.030;15.396;2023-04-24T00:26:45;96506.28;;;10.44;99.66
22580;BME280;11456;47.030;15.396;2023-04-24T00:29:11;96502.97;;;10.42;100.00
22580;BME280;11456;47.030;15.396;2023-04-24T00:31:38;96502.00;;;10.35;100.00
22580;BME280;11456;47.030;15.396;2023-04-24T00:34:05;96504.06;;;10.25;100.00
22580;BME280;11456;47.030;15.396;2023-04-24T00:36:31;96504.44;;;10.45;100.00
22580;BME280;11456;47.030;15.396;2023-04-24T00:38:58;96500.78;;;10.61;100.00
22580;BME280;11456;47.030;15.396;2023-04-24T00:41:25;96498.84;;;10.55;100.00
22580;BME280;11456;47.030;15.396;2023-04-24T00:43:52;96499.13;;;10.60;100.00
22580;BME280;11456;47.030;15.396;2023-04-24T00:46:19;96496.03;;;10.63;100.00
22580;BME280;11456;47.030;15.396;2023-04-24T00:48:45;96501.16;;;10.58;100.00
22580;BME280;11456;47.030;15.396;2023-04-24T00:51:12;96496.72;;;10.65;100.00
22580;BME280;11456;47.030;15.396;2023-04-24T00:53:39;96492.66;;;10.69;100.00
22580;BME280;11456;47.030;15.396;2023-04-24T00:56:05;96486.16;;;10.78;100.00
22580;BME280;11456;47.030;15.396;2023-04-24T00:58:32;96478.47;;;10.75;100.00
22580;BME280;11456;47.030;15.396;2023-04-24T01:00:58;96479.47;;;10.36;100.00
22580;BME280;11456;47.030;15.396;2023-04-24T01:03:30;96488.00;;;10.40;100.00
22580;BME280;11456;47.030;15.396;2023-04-24T01:05:58;96485.13;;;10.41;100.00
22580;BME280;11456;47.030;15.396;2023-04-24T01:08:25;96486.88;;;10.34;100.00
22580;BME280;11456;47.030;15.396;2023-04-24T01:10:52;96485.56;;;10.30;100.00
22580;BME280;11456;47.030;15.396;2023-04-24T01:13:19;96492.00;;;10.21;100.00
22580;BME280;11456;47.030;15.396;2023-04-24T01:15:47;96495.03;;;10.18;100.00
22580;BME280;11456;47.030;15.396;2023-04-24T01:18:13;96495.91;;;10.41;100.00
22580;BME280;11456;47.030;15.396;2023-04-24T01:20:41;96486.50;;;10.37;100.00
22580;BME280;11456;47.030;15.396;2023-04-24T01:23:08;96484.13;;;10.42;100.00
22580;BME280;11456;47.030;15.396;2023-04-24T01:25:36;96491.94;;;10.29;100.00
22580;BME280;11456;47.030;15.396;2023-04-24T01:28:03;96477.53;;;10.22;100.00
22580;BME280;11456;47.030;15.396;2023-04-24T01:30:30;96475.25;;;10.34;100.00
22580;BME280;11456;47.030;15.396;2023-04-24T01:32:57;96473.16;;;10.21;100.00
22580;BME280;11456;47.030;15.396;2023-04-24T01:35:25;96484.91;;;10.28;100.00
22580;BME280;11456;47.030;15.396;2023-04-24T01:37:51;96470.44;;;10.29;100.00
22580;BME280;11456;47.030;15.396;2023-04-24T01:40:18;96474.13;;;10.28;100.00
22580;BME280;11456;47.030;15.396;2023-04-24T01:42:44;96469.47;;;10.22;100.00
22580;BME280;11456;47.030;15.396;2023-04-24T01:45:11;96470.06;;;10.32;100.00
22580;BME280;11456;47.030;15.396;2023-04-24T01:47:39;96475.19;;;10.19;100.00
22580;BME280;11456;47.030;15.396;2023-04-24T01:50:06;96467.06;;;10.27;100.00
22580;BME280;11456;47.030;15.396;2023-04-24T01:52:32;96469.47;;;10.22;100.00
22580;BME280;11456;47.030;15.396;2023-04-24T01:54:59;96465.88;;;10.30;100.00
22580;BME280;11456;47.030;15.396;2023-04-24T01:57:26;96463.94;;;10.38;100.00
22580;BME280;11456;47.030;15.396;2023-04-24T01:59:53;96459.25;;;10.10;100.00
22580;BME280;11456;47.030;15.396;2023-04-24T02:02:19;96469.09;;;10.25;100.00
22580;BME280;11456;47.030;15.396;2023-04-24T02:04:47;96463.84;;;10.55;100.00
22580;BME280;11456;47.030;15.396;2023-04-24T02:07:14;96460.47;;;10.53;100.00
22580;BME280;11456;47.030;15.396;2023-04-24T02:09:40;96457.13;;;10.51;100.00
22580;BME280;11456;47.030;15.396;2023-04-24T02:12:07;96453.91;;;10.32;100.00
22580;BME280;11456;47.030;15.396;2023-04-24T02:14:34;96456.88;;;10.37;100.00
22580;BME280;11456;47.030;15.396;2023-04-24T02:17:02;96441.34;;;10.48;100.00
22580;BME280;11456;47.030;15.396;2023-04-24T02:19:28;96452.00;;;10.18;100.00
22580;BME280;11456;47.030;15.396;2023-04-24T02:21:55;96445.81;;;10.18;100.00
22580;BME280;11456;47.030;15.396;2023-04-24T02:24:21;96438.22;;;10.13;100.00
22580;BME280;11456;47.030;15.396;2023-04-24T02:26:48;96437.63;;;10.03;100.00
22580;BME280;11456;47.030;15.396;2023-04-24T02:29:14;96433.16;;;10.18;100.00
22580;BME280;11456;47.030;15.396;2023-04-24T02:31:41;96434.75;;;10.04;100.00
22580;BME280;11456;47.030;15.396;2023-04-24T02:34:08;96439.03;;;10.22;100.00
22580;BME280;11456;47.030;15.396;2023-04-24T02:36:34;96432.38;;;10.10;100.00
22580;BME280;11456;47.030;15.396;2023-04-24T02:39:01;96423.34;;;10.25;100.00
22580;BME280;11456;47.030;15.396;2023-04-24T02:41:27;96425.31;;;10.31;100.00
22580;BME280;11456;47.030;15.396;2023-04-24T02:43:59;96431.03;;;10.36;100.00
22580;BME280;11456;47.030;15.396;2023-04-24T02:46:25;96427.00;;;10.32;100.00
22580;BME280;11456;47.030;15.396;2023-04-24T02:48:52;96419.34;;;10.21;100.00
22580;BME280;11456;47.030;15.396;2023-04-24T02:51:19;96427.38;;;10.29;100.00
22580;BME280;11456;47.030;15.396;2023-04-24T02:53:45;96424.06;;;10.19;100.00
22580;BME280;11456;47.030;15.396;2023-04-24T02:56:12;96428.97;;;10.38;100.00
22580;BME280;11456;47.030;15.396;2023-04-24T02:58:39;96418.63;;;10.27;100.00
22580;BME280;11456;47.030;15.396;2023-04-24T03:01:05;96420.06;;;10.15;100.00
22580;BME280;11456;47.030;15.396;2023-04-24T03:03:32;96412.75;;;10.01;100.00
22580;BME280;11456;47.030;15.396;2023-04-24T03:05:59;96417.53;;;10.14;100.00
22580;BME280;11456;47.030;15.396;2023-04-24T03:08:26;96423.16;;;10.04;100.00
22580;BME280;11456;47.030;15.396;2023-04-24T03:10:52;96413.81;;;10.37;100.00
22580;BME280;11456;47.030;15.396;2023-04-24T03:13:19;96411.22;;;10.29;100.00
22580;BME280;11456;47.030;15.396;2023-04-24T03:15:45;96415.66;;;10.22;100.00
22580;BME280;11456;47.030;15.396;2023-04-24T03:18:13;96409.91;;;10.25;100.00
22580;BME280;11456;47.030;15.396;2023-04-24T03:20:40;96411.41;;;10.28;100.00
22580;BME280;11456;47.030;15.396;2023-04-24T03:23:06;96412.06;;;10.30;100.00
22580;BME280;11456;47.030;15.396;2023-04-24T03:25:34;96415.41;;;10.32;100.00
22580;BME280;11456;47.030;15.396;2023-04-24T03:28:02;96411.69;;;10.10;100.00
22580;BME280;11456;47.030;15.396;2023-04-24T03:30:39;96421.38;;;9.96;100.00
22580;BME280;11456;47.030;15.396;2023-04-24T03:33:07;96435.22;;;10.08;100.00
22580;BME280;11456;47.030;15.396;2023-04-24T03:35:37;96434.72;;;10.35;100.00
22580;BME280;11456;47.030;15.396;2023-04-24T03:38:08;96428.25;;;10.44;100.00
22580;BME280;11456;47.030;15.396;2023-04-24T03:40:53;96438.38;;;10.42;100.00
22580;BME280;11456;47.030;15.396;2023-04-24T03:43:39;96439.31;;;10.27;100.00
22580;BME280;11456;47.030;15.396;2023-04-24T03:46:06;96441.13;;;10.34;100.00
22580;BME280;11456;47.030;15.396;2023-04-24T03:48:40;96439.09;;;10.36;100.00
22580;BME280;11456;47.030;15.396;2023-04-24T03:51:08;96430.59;;;10.48;100.00
22580;BME280;11456;47.030;15.396;2023-04-24T03:53:36;96439.09;;;10.36;100.00
22580;BME280;11456;47.030;15.396;2023-04-24T03:56:03;96437.66;;;10.49;100.00
22580;BME280;11456;47.030;15.396;2023-04-24T03:58:31;96446.72;;;10.48;100.00
22580;BME280;11456;47.030;15.396;2023-04-24T04:00:58;96446.47;;;10.57;100.00
22580;BME280;11456;47.030;15.396;2023-04-24T04:03:33;96441.78;;;10.74;100.00
22580;BME280;11456;47.030;15.396;2023-04-24T04:06:00;96441.78;;;10.74;100.00
22580;BME280;11456;47.030;15.396;2023-04-24T04:08:27;96442.53;;;10.68;100.00
22580;BME280;11456;47.030;15.396;2023-04-24T04:10:54;96446.44;;;10.80;100.00
22580;BME280;11456;47.030;15.396;2023-04-24T04:13:22;96441.25;;;10.93;100.00
22580;BME280;11456;47.030;15.396;2023-04-24T04:15:48;96439.19;;;10.95;100.00
22580;BME280;11456;47.030;15.396;2023-04-24T04:18:15;96437.91;;;10.91;100.00
22580;BME280;11456;47.030;15.396;2023-04-24T04:20:42;96443.75;;;11.09;100.00
22580;BME280;11456;47.030;15.396;2023-04-24T04:23:11;96441.06;;;11.09;100.00
22580;BME280;11456;47.030;15.396;2023-04-24T04:26:02;96451.84;;;11.09;100.00
22580;BME280;11456;47.030;15.396;2023-04-24T04:28:43;96453.16;;;11.13;100.00
22580;BME280;11456;47.030;15.396;2023-04-24T04:31:11;96448.44;;;11.30;100.00
22580;BME280;11456;47.030;15.396;2023-04-24T04:33:37;96454.34;;;10.96;100.00
22580;BME280;11456;47.030;15.396;2023-04-24T04:36:07;96458.63;;;10.91;100.00
22580;BME280;11456;47.030;15.396;2023-04-24T04:38:38;96452.97;;;11.15;100.00
22580;BME280;11456;47.030;15.396;2023-04-24T04:41:15;96455.34;;;10.95;100.00
22580;BME280;11456;47.030;15.396;2023-04-24T04:43:43;96453.44;;;11.04;100.00
22580;BME280;11456;47.030;15.396;2023-04-24T04:46:10;96461.50;;;11.04;100.00
22580;BME280;11456;47.030;15.396;2023-04-24T04:49:00;96461.63;;;11.25;100.00
22580;BME280;11456;47.030;15.396;2023-04-24T04:51:28;96465.97;;;11.11;100.00
22580;BME280;11456;47.030;15.396;2023-04-24T04:53:54;96453.44;;;11.18;100.00
22580;BME280;11456;47.030;15.396;2023-04-24T04:56:21;96452.69;;;11.24;100.00
22580;BME280;11456;47.030;15.396;2023-04-24T04:58:48;96453.16;;;11.13;100.00
22580;BME280;11456;47.030;15.396;2023-04-24T05:01:16;96448.69;;;11.20;100.00
22580;BME280;11456;47.030;15.396;2023-04-24T05:03:46;96452.13;;;11.14;100.00
22580;BME280;11456;47.030;15.396;2023-04-24T05:06:15;96450.72;;;11.33;100.00
22580;BME280;11456;47.030;15.396;2023-04-24T05:08:44;96452.88;;;11.38;100.00
22580;BME280;11456;47.030;15.396;2023-04-24T05:11:22;96440.59;;;11.35;100.00
22580;BME280;11456;47.030;15.396;2023-04-24T05:13:49;96453.25;;;11.49;100.00
22580;BME280;11456;47.030;15.396;2023-04-24T05:16:21;96452.75;;;11.60;100.00
22580;BME280;11456;47.030;15.396;2023-04-24T05:18:50;96458.56;;;11.57;100.00
22580;BME280;11456;47.030;15.396;2023-04-24T05:21:20;96459.66;;;11.63;100.00
22580;BME280;11456;47.030;15.396;2023-04-24T05:23:50;96454.91;;;11.80;100.00
22580;BME280;11456;47.030;15.396;2023-04-24T05:26:25;96450.91;;;11.90;100.00
22580;BME280;11456;47.030;15.396;2023-04-24T05:28:54;96451.63;;;11.84;100.00
22580;BME280;11456;47.030;15.396;2023-04-24T05:31:21;96442.66;;;11.98;100.00
22580;BME280;11456;47.030;15.396;2023-04-24T05:33:49;96457.72;;;12.08;100.00
22580;BME280;11456;47.030;15.396;2023-04-24T05:36:15;96453.59;;;11.61;100.00
22580;BME280;11456;47.030;15.396;2023-04-24T05:38:42;96462.25;;;11.71;100.00
22580;BME280;11456;47.030;15.396;2023-04-24T05:41:08;96461.63;;;11.84;100.00
22580;BME280;11456;47.030;15.396;2023-04-24T05:43:35;96459.09;;;11.82;100.00
22580;BME280;11456;47.030;15.396;2023-04-24T05:46:01;96458.56;;;12.08;100.00
22580;BME280;11456;47.030;15.396;2023-04-24T05:48:28;96467.50;;;12.30;100.00
22580;BME280;11456;47.030;15.396;2023-04-24T05:50:54;96461.22;;;12.44;100.00
22580;BME280;11456;47.030;15.396;2023-04-24T05:53:22;96461.00;;;12.24;100.00
22580;BME280;11456;47.030;15.396;2023-04-24T05:55:49;96459.09;;;12.39;100.00
22580;BME280;11456;47.030;15.396;2023-04-24T05:58:16;96456.94;;;12.77;100.00
22580;BME280;11456;47.030;15.396;2023-04-24T06:00:45;96461.28;;;13.00;98.79
22580;BME280;11456;47.030;15.396;2023-04-24T06:03:13;96454.31;;;13.12;97.74
22580;BME280;11456;47.030;15.396;2023-04-24T06:05:40;96465.88;;;13.27;96.51
22580;BME280;11456;47.030;15.396;2023-04-24T06:08:07;96461.03;;;12.95;97.03
22580;BME280;11456;47.030;15.396;2023-04-24T06:10:37;96462.34;;;12.99;97.03
22580;BME280;11456;47.030;15.396;2023-04-24T06:13:05;96464.25;;;13.33;95.92
22580;BME280;11456;47.030;15.396;2023-04-24T06:15:35;96463.16;;;13.27;95.34
22580;BME280;11456;47.030;15.396;2023-04-24T06:18:07;96466.75;;;13.34;94.63
22580;BME280;11456;47.030;15.396;2023-04-24T06:20:35;96468.81;;;14.08;91.29
22580;BME280;11456;47.030;15.396;2023-04-24T06:23:01;96466.69;;;14.10;90.61
22580;BME280;11456;47.030;15.396;2023-04-24T06:25:28;96471.69;;;14.06;91.74
22580;BME280;11456;47.030;15.396;2023-04-24T06:27:55;96467.59;;;14.23;91.55
22580;BME280;11456;47.030;15.396;2023-04-24T06:30:22;96463.94;;;14.51;90.00
22580;BME280;11456;47.030;15.396;2023-04-24T06:32:48;96470.63;;;14.68;88.25
22580;BME280;11456;47.030;15.396;2023-04-24T06:35:15;96464.75;;;14.44;90.20
22580;BME280;11456;47.030;15.396;2023-04-24T06:37:41;96473.13;;;14.63;88.91
22580;BME280;11456;47.030;15.396;2023-04-24T06:40:08;96470.81;;;14.60;87.66
22580;BME280;11456;47.030;15.396;2023-04-24T06:42:36;96462.72;;;14.99;87.53
22580;BME280;11456;47.030;15.396;2023-04-24T06:45:03;96469.78;;;14.74;88.65
22580;BME280;11456;47.030;15.396;2023-04-24T06:47:29;96470.84;;;14.86;88.25
22580;BME280;11456;47.030;15.396;2023-04-24T06:49:56;96477.72;;;14.82;85.91
22580;BME280;11456;47.030;15.396;2023-04-24T06:52:23;96474.59;;;14.59;88.75
22580;BME280;11456;47.030;15.396;2023-04-24T06:54:49;96480.00;;;15.11;83.00
22580;BME280;11456;47.030;15.396;2023-04-24T06:57:17;96479.13;;;14.45;85.93
22580;BME280;11456;47.030;15.396;2023-04-24T06:59:43;96488.22;;;13.77;89.98
22580;BME280;11456;47.030;15.396;2023-04-24T07:02:10;96493.69;;;13.90;90.41
22580;BME280;11456;47.030;15.396;2023-04-24T07:04:37;96493.31;;;13.93;89.81
22580;BME280;11456;47.030;15.396;2023-04-24T07:07:03;96486.28;;;14.05;89.81
22580;BME280;11456;47.030;15.396;2023-04-24T07:09:30;96492.78;;;13.70;91.22
22580;BME280;11456;47.030;15.396;2023-04-24T07:11:58;96497.75;;;13.66;93.25
22580;BME280;11456;47.030;15.396;2023-04-24T07:14:24;96503.66;;;13.48;94.51
22580;BME280;11456;47.030;15.396;2023-04-24T07:16:51;96508.53;;;13.59;94.90
22580;BME280;11456;47.030;15.396;2023-04-24T07:19:18;96503.59;;;13.70;93.91
22580;BME280;11456;47.030;15.396;2023-04-24T07:21:44;96513.94;;;13.59;95.49
22580;BME280;11456;47.030;15.396;2023-04-24T07:24:11;96505.16;;;13.92;93.93
22580;BME280;11456;47.030;15.396;2023-04-24T07:26:39;96504.94;;;13.87;95.10
22580;BME280;11456;47.030;15.396;2023-04-24T07:29:06;96516.47;;;13.68;98.15
22580;BME280;11456;47.030;15.396;2023-04-24T07:31:33;96524.78;;;13.66;99.30
22580;BME280;11456;47.030;15.396;2023-04-24T07:34:00;96519.19;;;13.68;99.71
22580;BME280;11456;47.030;15.396;2023-04-24T07:36:26;96522.28;;;13.64;100.00
22580;BME280;11456;47.030;15.396;2023-04-24T07:38:54;96524.91;;;13.86;100.00
22580;BME280;11456;47.030;15.396;2023-04-24T07:41:22;96528.78;;;13.77;99.71
22580;BME280;11456;47.030;15.396;2023-04-24T07:43:50;96529.78;;;13.62;99.16
22580;BME280;11456;47.030;15.396;2023-04-24T07:46:17;96532.72;;;13.68;100.00
22580;BME280;11456;47.030;15.396;2023-04-24T07:48:43;96535.91;;;13.43;100.00
22580;BME280;11456;47.030;15.396;2023-04-24T07:51:10;96539.63;;;13.42;100.00
22580;BME280;11456;47.030;15.396;2023-04-24T07:53:39;96532.13;;;13.44;100.00
22580;BME280;11456;47.030;15.396;2023-04-24T07:56:06;96543.13;;;13.36;100.00
22580;BME280;11456;47.030;15.396;2023-04-24T07:58:33;96538.31;;;13.38;100.00
22580;BME280;11456;47.030;15.396;2023-04-24T08:00:59;96538.84;;;13.48;100.00
22580;BME280;11456;47.030;15.396;2023-04-24T08:03:26;96544.88;;;13.50;100.00
22580;BME280;11456;47.030;15.396;2023-04-24T08:05:52;96553.06;;;13.57;100.00
22580;BME280;11456;47.030;15.396;2023-04-24T08:08:21;96561.81;;;13.65;100.00
22580;BME280;11456;47.030;15.396;2023-04-24T08:10:48;96554.22;;;13.76;100.00
22580;BME280;11456;47.030;15.396;2023-04-24T08:13:14;96558.41;;;13.50;100.00
22580;BME280;11456;47.030;15.396;2023-04-24T08:15:41;96560.69;;;13.25;100.00
22580;BME280;11456;47.030;15.396;2023-04-24T08:18:07;96572.03;;;13.36;100.00
22580;BME280;11456;47.030;15.396;2023-04-24T08:20:34;96565.88;;;13.48;100.00
22580;BME280;11456;47.030;15.396;2023-04-24T08:23:00;96572.28;;;13.69;100.00
22580;BME280;11456;47.030;15.396;2023-04-24T08:25:27;96560.84;;;13.45;100.00
22580;BME280;11456;47.030;15.396;2023-04-24T08:27:53;96574.13;;;13.40;100.00
22580;BME280;11456;47.030;15.396;2023-04-24T08:30:20;96574.31;;;13.67;100.00
22580;BME280;11456;47.030;15.396;2023-04-24T08:32:47;96571.47;;;13.75;100.00
22580;BME280;11456;47.030;15.396;2023-04-24T08:35:14;96579.41;;;13.83;100.00
22580;BME280;11456;47.030;15.396;2023-04-24T08:37:40;96581.16;;;13.97;100.00
22580;BME280;11456;47.030;15.396;2023-04-24T08:40:12;96579.50;;;13.96;100.00
22580;BME280;11456;47.030;15.396;2023-04-24T08:42:39;96581.47;;;13.74;100.00
22580;BME280;11456;47.030;15.396;2023-04-24T08:45:11;96587.28;;;13.43;100.00
22580;BME280;11456;47.030;15.396;2023-04-24T08:47:38;96586.31;;;13.57;100.00
22580;BME280;11456;47.030;15.396;2023-04-24T08:50:06;96587.09;;;13.51;100.00
22580;BME280;11456;47.030;15.396;2023-04-24T08:52:33;96587.38;;;13.56;99.96
22580;BME280;11456;47.030;15.396;2023-04-24T08:55:00;96589.63;;;13.53;99.80
22580;BME280;11456;47.030;15.396;2023-04-24T08:57:28;96587.38;;;13.56;99.64
22580;BME280;11456;47.030;15.396;2023-04-24T08:59:55;96592.78;;;13.56;100.00
22580;BME280;11456;47.030;15.396;2023-04-24T09:02:22;96590.47;;;13.53;100.00
22580;BME280;11456;47.030;15.396;2023-04-24T09:04:50;96596.28;;;13.50;100.00
22580;BME280;11456;47.030;15.396;2023-04-24T09:07:17;96591.34;;;13.60;100.00
22580;BME280;11456;47.030;15.396;2023-04-24T09:09:45;96594.38;;;13.79;100.00
22580;BME280;11456;47.030;15.396;2023-04-24T09:12:12;96592.00;;;13.97;100.00
22580;BME280;11456;47.030;15.396;2023-04-24T09:14:39;96599.00;;;13.85;100.00
22580;BME280;11456;47.030;15.396;2023-04-24T09:17:08;96598.13;;;13.78;100.00
22580;BME280;11456;47.030;15.396;2023-04-24T09:19:35;96599.41;;;13.82;100.00
22580;BME280;11456;47.030;15.396;2023-04-24T09:22:05;96601.00;;;14.04;100.00
22580;BME280;11456;47.030;15.396;2023-04-24T09:24:33;96601.59;;;13.99;100.00
22580;BME280;11456;47.030;15.396;2023-04-24T09:26:59;96603.31;;;14.07;100.00
22580;BME280;11456;47.030;15.396;2023-04-24T09:29:30;96602.09;;;14.16;100.00
22580;BME280;11456;47.030;15.396;2023-04-24T09:31:58;96602.59;;;14.26;100.00
22580;BME280;11456;47.030;15.396;2023-04-24T09:34:25;96588.41;;;14.24;99.65
22580;BME280;11456;47.030;15.396;2023-04-24T09:36:52;96594.28;;;14.34;99.66
22580;BME280;11456;47.030;15.396;2023-04-24T09:39:19;96596.50;;;14.59;97.33
22580;BME280;11456;47.030;15.396;2023-04-24T09:44:13;96602.22;;;14.90;92.96
22580;BME280;11456;47.030;15.396;2023-04-24T09:46:41;96595.13;;;14.82;89.59
22580;BME280;11456;47.030;15.396;2023-04-24T09:49:14;96584.09;;;14.97;91.88
22580;BME280;11456;47.030;15.396;2023-04-24T09:51:42;96588.31;;;15.33;91.78
22580;BME280;11456;47.030;15.396;2023-04-24T09:54:16;96583.91;;;15.18;91.20
22580;BME280;11456;47.030;15.396;2023-04-24T09:56:44;96586.22;;;15.41;90.56
22580;BME280;11456;47.030;15.396;2023-04-24T09:59:12;96585.81;;;15.77;85.81
22580;BME280;11456;47.030;15.396;2023-04-24T10:01:38;96580.38;;;15.84;82.20
22580;BME280;11456;47.030;15.396;2023-04-24T10:04:15;96580.75;;;15.94;85.16
22580;BME280;11456;47.030;15.396;2023-04-24T10:06:43;96574.13;;;15.63;85.79
22580;BME280;11456;47.030;15.396;2023-04-24T10:09:10;96574.53;;;15.41;85.87
22580;BME280;11456;47.030;15.396;2023-04-24T10:11:43;96578.09;;;15.48;85.32
22580;BME280;11456;47.030;15.396;2023-04-24T10:14:15;96569.97;;;15.54;84.77
22580;BME280;11456;47.030;15.396;2023-04-24T10:16:42;96573.69;;;15.40;83.94
22580;BME280;11456;47.030;15.396;2023-04-24T10:19:10;96569.94;;;15.35;83.38
22580;BME280;11456;47.030;15.396;2023-04-24T10:21:37;96571.00;;;15.34;84.53
22580;BME280;11456;47.030;15.396;2023-04-24T10:24:08;96568.28;;;15.20;85.50
22580;BME280;11456;47.030;15.396;2023-04-24T10:26:35;96559.28;;;15.20;84.12
22580;BME280;11456;47.030;15.396;2023-04-24T10:29:03;96566.19;;;15.36;81.85
22580;BME280;11456;47.030;15.396;2023-04-24T10:31:31;96568.91;;;15.22;81.34
22580;BME280;11456;47.030;15.396;2023-04-24T10:33:58;96577.06;;;15.49;81.75
22580;BME280;11456;47.030;15.396;2023-04-24T10:36:26;96572.91;;;15.53;82.40
22580;BME280;11456;47.030;15.396;2023-04-24T10:38:54;96567.00;;;14.97;82.95
22580;BME280;11456;47.030;15.396;2023-04-24T10:41:22;96572.88;;;15.27;84.73
22580;BME280;11456;47.030;15.396;2023-04-24T10:44:04;96571.63;;;15.49;83.36
22580;BME280;11456;47.030;15.396;2023-04-24T10:46:31;96576.44;;;15.73;83.91
22580;BME280;11456;47.030;15.396;2023-04-24T10:48:58;96575.59;;;15.59;83.72
22580;BME280;11456;47.030;15.396;2023-04-24T10:51:43;96577.25;;;15.80;80.50
22580;BME280;11456;47.030;15.396;2023-04-24T10:54:28;96569.31;;;15.79;80.88
22580;BME280;11456;47.030;15.396;2023-04-24T10:59:40;96570.38;;;16.49;79.44
22580;BME280;11456;47.030;15.396;2023-04-24T11:02:07;96562.28;;;16.29;77.01
22580;BME280;11456;47.030;15.396;2023-04-24T11:04:34;96561.31;;;16.68;77.27
22580;BME280;11456;47.030;15.396;2023-04-24T11:07:04;96561.63;;;17.47;76.34
22580;BME280;11456;47.030;15.396;2023-04-24T11:09:31;96561.91;;;16.76;75.78
22580;BME280;11456;47.030;15.396;2023-04-24T11:12:08;96557.88;;;17.42;72.12
22580;BME280;11456;47.030;15.396;2023-04-24T11:17:31;96563.03;;;17.25;72.07
22580;BME280;11456;47.030;15.396;2023-04-24T11:20:08;96563.63;;;17.34;73.90
22580;BME280;11456;47.030;15.396;2023-04-24T11:22:53;96567.75;;;17.11;68.07
22580;BME280;11456;47.030;15.396;2023-04-24T11:25:24;96559.28;;;17.76;69.09
22580;BME280;11456;47.030;15.396;2023-04-24T11:27:52;96565.22;;;17.73;66.45
22580;BME280;11456;47.030;15.396;2023-04-24T11:30:28;96566.97;;;17.54;67.46
22580;BME280;11456;47.030;15.396;2023-04-24T11:32:55;96561.88;;;17.71;70.39
22580;BME280;11456;47.030;15.396;2023-04-24T11:35:28;96560.25;;;17.07;65.99
22580;BME280;11456;47.030;15.396;2023-04-24T11:37:56;96564.03;;;17.62;66.10
22580;BME280;11456;47.030;15.396;2023-04-24T11:40:26;96559.03;;;18.38;63.86
22580;BME280;11456;47.030;15.396;2023-04-24T11:42:53;96565.69;;;18.06;63.13
22580;BME280;11456;47.030;15.396;2023-04-24T11:45:23;96558.19;;;18.01;61.64
22580;BME280;11456;47.030;15.396;2023-04-24T11:47:50;96568.41;;;18.24;61.50
22580;BME280;11456;47.030;15.396;2023-04-24T11:50:18;96562.34;;;17.86;60.64
22580;BME280;11456;47.030;15.396;2023-04-24T11:52:48;96559.06;;;17.52;63.06
22580;BME280;11456;47.030;15.396;2023-04-24T11:57:42;96560.19;;;17.70;61.44
22580;BME280;11456;47.030;15.396;2023-04-24T12:00:21;96566.13;;;17.60;63.12
22580;BME280;11456;47.030;15.396;2023-04-24T12:02:48;96558.84;;;17.79;63.04
22580;BME280;11456;47.030;15.396;2023-04-24T12:05:19;96567.66;;;17.49;61.96
22580;BME280;11456;47.030;15.396;2023-04-24T12:07:46;96560.97;;;17.77;61.56
22580;BME280;11456;47.030;15.396;2023-04-24T12:10:12;96556.28;;;17.84;63.59
22580;BME280;11456;47.030;15.396;2023-04-24T12:12:39;96562.16;;;17.81;60.40
22580;BME280;11456;47.030;15.396;2023-04-24T12:15:08;96558.44;;;18.18;59.94
22580;BME280;11456;47.030;15.396;2023-04-24T12:17:35;96552.06;;;18.24;60.88
22580;BME280;11456;47.030;15.396;2023-04-24T12:20:06;96560.66;;;17.35;59.76
22580;BME280;11456;47.030;15.396;2023-04-24T12:22:46;96557.94;;;17.67;60.92
22580;BME280;11456;47.030;15.396;2023-04-24T12:25:13;96564.63;;;18.25;58.53
22580;BME280;11456;47.030;15.396;2023-04-24T12:27:40;96562.66;;;18.51;58.50
22580;BME280;11456;47.030;15.396;2023-04-24T12:30:10;96563.84;;;18.91;57.33
22580;BME280;11456;47.030;15.396;2023-04-24T12:32:40;96556.34;;;18.87;55.26
22580;BME280;11456;47.030;15.396;2023-04-24T12:35:07;96555.41;;;19.22;55.34
22580;BME280;11456;47.030;15.396;2023-04-24T12:37:33;96557.94;;;19.36;54.78
22580;BME280;11456;47.030;15.396;2023-04-24T12:40:04;96555.94;;;19.43;54.57
22580;BME280;11456;47.030;15.396;2023-04-24T12:42:34;96548.03;;;19.23;54.64
22580;BME280;11456;47.030;15.396;2023-04-24T12:45:05;96544.13;;;18.89;56.11
22580;BME280;11456;47.030;15.396;2023-04-24T12:47:32;96543.69;;;18.92;54.87
22580;BME280;11456;47.030;15.396;2023-04-24T12:49:59;96543.28;;;18.59;55.49
22580;BME280;11456;47.030;15.396;2023-04-24T12:52:26;96546.00;;;18.77;56.89
22580;BME280;11456;47.030;15.396;2023-04-24T12:54:54;96545.16;;;19.06;55.32
22580;BME280;11456;47.030;15.396;2023-04-24T12:57:21;96530.50;;;18.89;53.70
22580;BME280;11456;47.030;15.396;2023-04-24T12:59:48;96535.88;;;18.48;56.32
22580;BME280;11456;47.030;15.396;2023-04-24T13:02:14;96537.69;;;18.54;53.64